createdAt,value
2024-01-01T00:00:33.379Z,101114.60
2024-01-01T00:03:21.365Z,101116.60
2024-01-01T00:05:50.102Z,101109.80
2024-01-01T00:08:17.964Z,101118.40
2024-01-01T00:10:46.860Z,101106.60
2024-01-01T00:13:14.828Z,101112.80
2024-01-01T00:15:43.094Z,101117.80
2024-01-01T00:18:11.188Z,101112.20
2024-01-01T00:20:40.269Z,101119.80
2024-01-01T00:23:08.721Z,101115.80
2024-01-01T00:25:37.761Z,101111.40
2024-01-01T00:28:07.579Z,101115.40
2024-01-01T00:30:39.295Z,101114.80
2024-01-01T00:33:07.517Z,101115.00
2024-01-01T00:35:36.031Z,101116.80
2024-01-01T00:38:04.764Z,101117.60
2024-01-01T00:40:33.199Z,101117.20
2024-01-01T00:43:01.184Z,101115.60
2024-01-01T00:45:37.002Z,101123.60
2024-01-01T00:48:11.378Z,101120.20
2024-01-01T00:50:39.771Z,101109.00
2024-01-01T00:53:07.676Z,101103.80
2024-01-01T00:55:35.916Z,101102.00
2024-01-01T00:58:08.652Z,101100.80
2024-01-01T01:00:37.197Z,101101.60
2024-01-01T01:03:05.917Z,101104.80
2024-01-01T01:05:33.969Z,101098.80
2024-01-01T01:08:02.487Z,101105.60
2024-01-01T01:10:30.680Z,101101.40
2024-01-01T01:12:58.660Z,101098.60
2024-01-01T01:15:28.326Z,101098.00
2024-01-01T01:17:57.350Z,101103.40
2024-01-01T01:20:25.353Z,101106.80
2024-01-01T01:22:53.864Z,101100.00
2024-01-01T01:25:21.974Z,101097.60
2024-01-01T01:27:49.755Z,101100.60
2024-01-01T01:30:18.006Z,101095.60
2024-01-01T01:32:46.451Z,101095.00
2024-01-01T01:35:15.626Z,101098.40
2024-01-01T01:37:46.624Z,101087.20
2024-01-01T01:40:14.754Z,101082.40
2024-01-01T01:42:48.262Z,101096.60
2024-01-01T01:45:16.237Z,101088.80
2024-01-01T01:47:45.778Z,101089.80
2024-01-01T01:50:15.206Z,101084.40
2024-01-01T01:52:45.428Z,101087.80
2024-01-01T01:55:15.077Z,101083.20
2024-01-01T01:57:44.962Z,101070.60
2024-01-01T02:00:14.549Z,101081.60
2024-01-01T02:02:44.098Z,101077.80
2024-01-01T02:05:12.286Z,101085.80
2024-01-01T02:07:42.693Z,101079.00
2024-01-01T02:10:11.869Z,101085.40
2024-01-01T02:12:40.001Z,101082.00
2024-01-01T02:15:08.797Z,101082.00
2024-01-01T02:17:36.851Z,101083.60
2024-01-01T02:20:14.404Z,101082.40
2024-01-01T02:22:47.227Z,101078.80
2024-01-01T02:25:17.708Z,101075.60
2024-01-01T02:27:45.624Z,101070.60
2024-01-01T02:30:13.753Z,101067.20
2024-01-01T02:32:41.848Z,101067.20
2024-01-01T02:35:10.401Z,101071.60
2024-01-01T02:37:40.006Z,101077.60
2024-01-01T02:40:10.088Z,101066.60
2024-01-01T02:42:38.699Z,101072.20
2024-01-01T02:45:08.636Z,101069.20
2024-01-01T02:47:36.764Z,101079.00
2024-01-01T02:50:05.843Z,101078.20
2024-01-01T02:52:34.181Z,101077.60
2024-01-01T02:55:02.116Z,101084.40
2024-01-01T02:57:30.002Z,101080.80
2024-01-01T02:59:58.192Z,101067.60
2024-01-01T03:02:26.394Z,101076.20
2024-01-01T03:04:54.296Z,101074.00
2024-01-01T03:07:23.458Z,101073.00
2024-01-01T03:09:52.166Z,101068.20
2024-01-01T03:12:20.034Z,101069.40
2024-01-01T03:14:48.373Z,101069.00
2024-01-01T03:17:16.500Z,101077.00
2024-01-01T03:19:44.456Z,101070.80
2024-01-01T03:22:12.870Z,101077.40
2024-01-01T03:24:41.030Z,101074.20
2024-01-01T03:27:08.867Z,101068.40
2024-01-01T03:29:36.677Z,101069.20
2024-01-01T03:32:05.543Z,101072.20
2024-01-01T03:34:34.502Z,101070.40
2024-01-01T03:37:02.971Z,101070.60
2024-01-01T03:39:31.105Z,101069.80
2024-01-01T03:41:59.133Z,101077.80
2024-01-01T03:44:27.011Z,101076.60
2024-01-01T03:46:54.971Z,101079.40
2024-01-01T03:49:22.977Z,101067.80
2024-01-01T03:51:51.127Z,101075.00
2024-01-01T03:54:19.320Z,101074.40
2024-01-01T03:56:47.419Z,101078.20
2024-01-01T03:59:15.484Z,101077.00
2024-01-01T04:01:43.732Z,101073.40
2024-01-01T04:04:12.159Z,101076.80
2024-01-01T04:06:40.115Z,101088.00
2024-01-01T04:09:08.781Z,101081.40
2024-01-01T04:11:36.623Z,101078.20
2024-01-01T04:14:04.942Z,101077.20
2024-01-01T04:16:33.341Z,101086.80
2024-01-01T04:19:01.296Z,101077.80
2024-01-01T04:21:29.697Z,101074.60
2024-01-01T04:23:59.527Z,101077.40
2024-01-01T04:26:27.447Z,101079.00
2024-01-01T04:28:55.368Z,101078.60
2024-01-01T04:31:23.448Z,101075.40
2024-01-01T04:33:51.431Z,101075.20
2024-01-01T04:36:19.571Z,101080.40
2024-01-01T04:38:49.269Z,101080.20
2024-01-01T04:41:17.367Z,101082.60
2024-01-01T04:43:46.179Z,101083.80
2024-01-01T04:46:14.719Z,101092.40
2024-01-01T04:48:42.619Z,101089.00
2024-01-01T04:51:10.806Z,101082.80
2024-01-01T04:53:40.720Z,101086.40
2024-01-01T04:56:08.543Z,101103.20
2024-01-01T04:58:36.417Z,101100.80
2024-01-01T05:01:04.554Z,101095.00
2024-01-01T05:03:33.821Z,101096.40
2024-01-01T05:06:02.191Z,101093.40
2024-01-01T05:08:31.488Z,101102.20
2024-01-01T05:10:59.621Z,101099.40
2024-01-01T05:13:27.605Z,101104.60
2024-01-01T05:15:55.985Z,101102.20
2024-01-01T05:18:24.043Z,101102.60
2024-01-01T05:20:52.977Z,101108.80
2024-01-01T05:23:21.329Z,101108.40
2024-01-01T05:25:49.354Z,101105.40
2024-01-01T05:28:17.304Z,101112.40
2024-01-01T05:30:45.497Z,101107.00
2024-01-01T05:33:14.890Z,101109.20
2024-01-01T05:35:43.161Z,101117.00
2024-01-01T05:38:11.349Z,101111.80
2024-01-01T05:40:40.300Z,101117.20
2024-01-01T05:43:10.343Z,101120.80
2024-01-01T05:45:38.216Z,101115.00
2024-01-01T05:48:07.113Z,101123.40
2024-01-01T05:50:35.500Z,101124.20
2024-01-01T05:53:04.968Z,101122.80
2024-01-01T05:55:36.566Z,101130.60
2024-01-01T05:58:05.077Z,101127.80
2024-01-01T06:00:38.156Z,101122.40
2024-01-01T06:03:06.439Z,101121.20
2024-01-01T06:05:37.079Z,101118.40
2024-01-01T06:08:06.578Z,101116.00
2024-01-01T06:10:36.006Z,101116.20
2024-01-01T06:13:04.429Z,101117.00
2024-01-01T06:15:32.920Z,101119.00
2024-01-01T06:18:01.100Z,101109.40
2024-01-01T06:20:29.034Z,101113.20
2024-01-01T06:22:56.964Z,101118.00
2024-01-01T06:25:25.426Z,101123.40
2024-01-01T06:27:53.294Z,101112.00
2024-01-01T06:30:21.711Z,101121.40
2024-01-01T06:32:49.977Z,101120.00
2024-01-01T06:35:19.627Z,101125.00
2024-01-01T06:37:47.482Z,101135.40
2024-01-01T06:40:16.257Z,101137.00
2024-01-01T06:42:44.081Z,101136.40
2024-01-01T06:45:11.928Z,101148.20
2024-01-01T06:47:40.428Z,101142.60
2024-01-01T06:50:09.710Z,101150.00
2024-01-01T06:52:37.952Z,101146.00
2024-01-01T06:55:06.669Z,101157.20
2024-01-01T06:57:34.579Z,101147.40
2024-01-01T07:00:03.800Z,101166.40
2024-01-01T07:02:32.066Z,101160.20
2024-01-01T07:05:00.360Z,101160.60
2024-01-01T07:07:28.391Z,101165.80
2024-01-01T07:09:56.772Z,101158.60
2024-01-01T07:12:28.247Z,101166.60
2024-01-01T07:14:56.686Z,101166.60
2024-01-01T07:17:25.146Z,101167.20
2024-01-01T07:19:53.932Z,101169.40
2024-01-01T07:22:22.233Z,101164.20
2024-01-01T07:24:50.730Z,101168.80
2024-01-01T07:27:18.951Z,101168.80
2024-01-01T07:29:47.912Z,101168.80
2024-01-01T07:32:16.762Z,101173.00
2024-01-01T07:34:44.790Z,101174.00
2024-01-01T07:37:12.760Z,101180.00
2024-01-01T07:39:43.120Z,101178.60
2024-01-01T07:42:11.100Z,101183.00
2024-01-01T07:44:38.936Z,101177.60
2024-01-01T07:47:06.889Z,101186.00
2024-01-01T07:49:34.748Z,101188.80
2024-01-01T07:52:03.135Z,101181.40
2024-01-01T07:54:31.038Z,101192.00
2024-01-01T07:56:58.855Z,101196.40
2024-01-01T07:59:27.171Z,101182.40
2024-01-01T08:01:55.455Z,101193.80
2024-01-01T08:04:23.401Z,101195.20
2024-01-01T08:06:51.548Z,101200.40
2024-01-01T08:09:19.733Z,101190.60
2024-01-01T08:11:47.606Z,101200.60
2024-01-01T08:14:15.487Z,101208.00
2024-01-01T08:16:43.523Z,101202.60
2024-01-01T08:19:11.794Z,101210.40
2024-01-01T08:21:40.325Z,101209.60
2024-01-01T08:24:08.699Z,101213.60
2024-01-01T08:26:36.576Z,101208.80
2024-01-01T08:29:04.563Z,101207.80
2024-01-01T08:31:32.598Z,101219.20
2024-01-01T08:34:00.734Z,101224.60
2024-01-01T08:36:29.198Z,101218.00
2024-01-01T08:38:57.317Z,101223.60
2024-01-01T08:41:25.203Z,101230.40
2024-01-01T08:43:58.647Z,101228.40
2024-01-01T08:46:28.145Z,101224.00
2024-01-01T08:48:56.794Z,101230.00
2024-01-01T08:51:24.864Z,101236.40
2024-01-01T08:53:54.990Z,101232.60
2024-01-01T08:56:23.119Z,101236.60
2024-01-01T08:58:51.180Z,101239.00
2024-01-01T09:01:19.249Z,101234.80
2024-01-01T09:03:47.816Z,101222.60
2024-01-01T09:06:16.048Z,101226.20
2024-01-01T09:08:44.741Z,101231.80
2024-01-01T09:11:13.039Z,101242.00
2024-01-01T09:13:41.300Z,101245.20
2024-01-01T09:16:10.610Z,101238.80
2024-01-01T09:18:39.593Z,101245.60
2024-01-01T09:21:17.482Z,101246.80
2024-01-01T09:23:46.659Z,101243.80
2024-01-01T09:26:16.036Z,101250.60
2024-01-01T09:28:44.165Z,101247.60
2024-01-01T09:31:12.080Z,101258.20
2024-01-01T09:33:41.136Z,101251.20
2024-01-01T09:36:10.228Z,101261.60
2024-01-01T09:38:38.139Z,101256.00
2024-01-01T09:41:11.655Z,101259.80
2024-01-01T09:43:42.235Z,101256.60
2024-01-01T09:46:10.246Z,101264.40
2024-01-01T09:48:38.720Z,101263.40
2024-01-01T09:51:07.109Z,101269.20
2024-01-01T09:53:35.247Z,101278.20
2024-01-01T09:56:04.170Z,101271.20
2024-01-01T09:58:45.859Z,101281.00
2024-01-01T10:01:20.564Z,101284.60
2024-01-01T10:04:08.704Z,101292.40
2024-01-01T10:06:38.082Z,101291.20
2024-01-01T10:09:20.200Z,101298.40
2024-01-01T10:11:50.058Z,101297.40
2024-01-01T10:14:20.326Z,101308.60
2024-01-01T10:16:48.251Z,101307.60
2024-01-01T10:19:16.386Z,101315.00
2024-01-01T10:21:45.825Z,101302.20
2024-01-01T10:24:30.368Z,101306.40
2024-01-01T10:27:03.476Z,101306.00
2024-01-01T10:29:36.810Z,101310.40
2024-01-01T10:32:07.158Z,101309.80
2024-01-01T10:34:39.182Z,101313.40
2024-01-01T10:37:09.508Z,101311.40
2024-01-01T10:39:39.546Z,101317.60
2024-01-01T10:42:07.751Z,101323.20
2024-01-01T10:44:36.444Z,101324.00
2024-01-01T10:47:10.900Z,101328.60
2024-01-01T10:49:54.020Z,101330.40
2024-01-01T10:52:51.054Z,101328.40
2024-01-01T10:56:04.102Z,101332.00
2024-01-01T10:59:07.818Z,101324.20
2024-01-01T11:01:39.065Z,101333.20
2024-01-01T11:04:07.125Z,101329.40
2024-01-01T11:06:40.554Z,101338.20
2024-01-01T11:09:20.793Z,101330.20
2024-01-01T11:11:53.610Z,101332.20
2024-01-01T11:14:26.587Z,101330.00
2024-01-01T11:17:03.789Z,101330.60
2024-01-01T11:19:37.526Z,101321.80
2024-01-01T11:22:27.187Z,101322.00
2024-01-01T11:24:55.190Z,101324.00
2024-01-01T11:27:35.962Z,101331.40
2024-01-01T11:30:07.590Z,101331.80
2024-01-01T11:32:37.038Z,101330.40
2024-01-01T11:35:14.112Z,101326.00
2024-01-01T11:37:44.925Z,101332.80
2024-01-01T11:40:16.190Z,101329.40
2024-01-01T11:42:44.376Z,101333.40
2024-01-01T11:45:21.792Z,101331.80
2024-01-01T11:47:50.361Z,101330.60
2024-01-01T11:50:18.627Z,101336.80
2024-01-01T11:53:01.610Z,101328.60
2024-01-01T11:55:29.633Z,101328.80
2024-01-01T11:57:58.528Z,101327.80
2024-01-01T12:00:26.941Z,101323.40
2024-01-01T12:02:55.065Z,101323.60
2024-01-01T12:05:23.118Z,101321.00
2024-01-01T12:07:51.103Z,101319.00
2024-01-01T12:10:19.451Z,101320.00
2024-01-01T12:12:48.905Z,101323.20
2024-01-01T12:15:20.767Z,101323.40
2024-01-01T12:17:53.838Z,101326.60
2024-01-01T12:20:25.445Z,101329.00
2024-01-01T12:22:56.619Z,101320.40
2024-01-01T12:25:26.625Z,101332.00
2024-01-01T12:28:09.492Z,101315.40
2024-01-01T12:30:39.182Z,101326.00
2024-01-01T12:33:09.176Z,101330.00
2024-01-01T12:35:39.368Z,101323.60
2024-01-01T12:38:07.174Z,101325.60
2024-01-01T12:40:35.030Z,101335.00
2024-01-01T12:43:03.351Z,101324.40
2024-01-01T12:45:32.287Z,101330.00
2024-01-01T12:48:01.704Z,101324.60
2024-01-01T12:50:30.392Z,101325.80
2024-01-01T12:52:59.241Z,101324.80
2024-01-01T12:55:27.296Z,101323.00
2024-01-01T12:57:55.577Z,101336.60
2024-01-01T13:00:23.496Z,101330.00
2024-01-01T13:02:53.835Z,101332.40
2024-01-01T13:05:22.522Z,101342.60
2024-01-01T13:07:50.997Z,101340.60
2024-01-01T13:10:19.350Z,101343.60
2024-01-01T13:12:47.186Z,101334.80
2024-01-01T13:15:15.101Z,101335.40
2024-01-01T13:17:45.997Z,101341.00
2024-01-01T13:20:14.736Z,101327.20
2024-01-01T13:22:42.674Z,101340.00
2024-01-01T13:25:12.283Z,101344.80
2024-01-01T13:27:41.807Z,101349.00
2024-01-01T13:30:10.434Z,101345.40
2024-01-01T13:32:40.285Z,101355.40
2024-01-01T13:35:09.942Z,101365.00
2024-01-01T13:37:39.225Z,101349.20
2024-01-01T13:40:08.512Z,101364.00
2024-01-01T13:42:37.109Z,101355.60
2024-01-01T13:45:06.815Z,101347.60
2024-01-01T13:47:36.479Z,101346.40
2024-01-01T13:50:07.032Z,101347.80
2024-01-01T13:52:35.744Z,101346.20
2024-01-01T13:55:06.389Z,101356.60
2024-01-01T13:57:34.363Z,101351.00
2024-01-01T14:00:09.994Z,101341.60
2024-01-01T14:02:39.438Z,101356.40
2024-01-01T14:05:08.709Z,101341.80
2024-01-01T14:07:37.415Z,101345.00
2024-01-01T14:10:06.953Z,101348.20
2024-01-01T14:12:34.862Z,101344.60
2024-01-01T14:15:03.914Z,101344.00
2024-01-01T14:17:31.874Z,101347.20
2024-01-01T14:19:59.845Z,101339.60
2024-01-01T14:22:30.958Z,101341.00
2024-01-01T14:25:00.968Z,101352.00
2024-01-01T14:27:29.165Z,101350.20
2024-01-01T14:29:57.402Z,101347.40
2024-01-01T14:32:28.773Z,101354.80
2024-01-01T14:34:57.345Z,101350.40
2024-01-01T14:37:25.798Z,101357.40
2024-01-01T14:39:54.486Z,101359.40
2024-01-01T14:42:22.604Z,101364.80
2024-01-01T14:44:53.239Z,101364.20
2024-01-01T14:47:21.324Z,101358.80
2024-01-01T14:49:50.901Z,101367.00
2024-01-01T14:52:18.896Z,101366.00
2024-01-01T14:54:46.870Z,101361.60
2024-01-01T14:57:14.881Z,101368.60
2024-01-01T14:59:44.279Z,101369.60
2024-01-01T15:02:13.579Z,101374.80
2024-01-01T15:04:43.257Z,101366.60
2024-01-01T15:07:11.524Z,101372.60
2024-01-01T15:09:39.805Z,101378.60
2024-01-01T15:12:09.472Z,101380.40
2024-01-01T15:14:37.504Z,101382.60
2024-01-01T15:17:07.212Z,101385.60
2024-01-01T15:19:36.303Z,101383.40
2024-01-01T15:22:04.347Z,101395.00
2024-01-01T15:24:32.129Z,101389.60
2024-01-01T15:27:04.052Z,101389.60
2024-01-01T15:29:32.700Z,101400.80
2024-01-01T15:32:00.742Z,101400.20
2024-01-01T15:34:31.272Z,101401.60
2024-01-01T15:37:00.055Z,101400.60
2024-01-01T15:39:28.011Z,101406.00
2024-01-01T15:41:56.462Z,101404.60
2024-01-01T15:44:25.477Z,101401.00
2024-01-01T15:46:54.010Z,101398.80
2024-01-01T15:49:22.401Z,101405.40
2024-01-01T15:51:50.474Z,101407.40
2024-01-01T15:54:18.377Z,101403.60
2024-01-01T15:56:48.460Z,101409.60
2024-01-01T15:59:20.392Z,101412.00
2024-01-01T16:01:48.551Z,101412.40
2024-01-01T16:04:16.454Z,101417.20
2024-01-01T16:06:44.568Z,101411.00
2024-01-01T16:09:15.892Z,101410.00
2024-01-01T16:11:44.033Z,101413.20
2024-01-01T16:14:12.189Z,101403.00
2024-01-01T16:16:40.150Z,101414.40
2024-01-01T16:19:17.151Z,101414.20
2024-01-01T16:21:50.542Z,101411.80
2024-01-01T16:24:19.094Z,101408.20
2024-01-01T16:26:49.874Z,101422.20
2024-01-01T16:29:18.323Z,101413.60
2024-01-01T16:31:46.289Z,101420.80
2024-01-01T16:34:14.264Z,101418.40
2024-01-01T16:36:44.721Z,101422.80
2024-01-01T16:39:15.473Z,101423.20
2024-01-01T16:41:45.211Z,101424.80
2024-01-01T16:44:16.028Z,101433.60
2024-01-01T16:46:44.615Z,101437.40
2024-01-01T16:49:14.433Z,101438.60
2024-01-01T16:51:46.311Z,101442.40
2024-01-01T16:54:14.295Z,101439.60
2024-01-01T16:56:42.206Z,101449.40
2024-01-01T16:59:10.666Z,101448.00
2024-01-01T17:01:38.844Z,101454.00
2024-01-01T17:04:06.909Z,101451.60
2024-01-01T17:06:34.772Z,101450.20
2024-01-01T17:09:03.614Z,101458.20
2024-01-01T17:11:31.630Z,101457.60
2024-01-01T17:13:59.575Z,101459.00
2024-01-01T17:16:28.942Z,101467.00
2024-01-01T17:18:58.196Z,101466.60
2024-01-01T17:21:31.970Z,101473.40
2024-01-01T17:24:00.122Z,101473.40
2024-01-01T17:26:28.126Z,101470.20
2024-01-01T17:28:59.065Z,101479.00
2024-01-01T17:31:27.303Z,101474.40
2024-01-01T17:33:56.136Z,101477.20
2024-01-01T17:36:24.885Z,101484.60
2024-01-01T17:38:52.774Z,101486.60
2024-01-01T17:41:22.492Z,101485.00
2024-01-01T17:43:52.443Z,101490.40
2024-01-01T17:46:20.297Z,101496.00
2024-01-01T17:48:49.578Z,101491.20
2024-01-01T17:51:17.890Z,101491.80
2024-01-01T17:53:47.822Z,101491.80
2024-01-01T17:56:16.650Z,101496.60
2024-01-01T17:58:49.053Z,101488.80
2024-01-01T18:01:17.141Z,101495.40
2024-01-01T18:03:48.194Z,101491.60
2024-01-01T18:06:16.409Z,101501.20
2024-01-01T18:08:44.696Z,101498.40
2024-01-01T18:11:23.066Z,101505.60
2024-01-01T18:13:52.353Z,101497.40
2024-01-01T18:16:20.280Z,101493.20
2024-01-01T18:18:48.985Z,101503.00
2024-01-01T18:21:17.621Z,101498.00
2024-01-01T18:23:45.630Z,101499.00
2024-01-01T18:26:15.716Z,101504.40
2024-01-01T18:28:44.148Z,101503.80
2024-01-01T18:31:20.140Z,101509.80
2024-01-01T18:33:49.291Z,101509.40
2024-01-01T18:36:19.163Z,101508.60
2024-01-01T18:38:47.688Z,101516.00
2024-01-01T18:41:17.392Z,101514.20
2024-01-01T18:43:48.027Z,101518.40
2024-01-01T18:46:16.035Z,101519.00
2024-01-01T18:48:48.044Z,101513.20
2024-01-01T18:51:17.535Z,101519.60
2024-01-01T18:53:47.721Z,101521.20
2024-01-01T18:56:16.399Z,101522.80
2024-01-01T18:58:50.570Z,101527.00
2024-01-01T19:01:19.332Z,101517.80
2024-01-01T19:03:49.024Z,101520.60
2024-01-01T19:06:19.554Z,101519.00
2024-01-01T19:08:50.011Z,101518.40
2024-01-01T19:11:18.377Z,101527.40
2024-01-01T19:13:46.274Z,101520.60
2024-01-01T19:16:18.802Z,101517.80
2024-01-01T19:18:49.734Z,101521.40
2024-01-01T19:21:21.714Z,101519.40
2024-01-01T19:23:50.704Z,101523.60
2024-01-01T19:26:18.767Z,101519.00
2024-01-01T19:28:47.812Z,101524.60
2024-01-01T19:31:16.507Z,101527.40
2024-01-01T19:33:44.674Z,101529.80
2024-01-01T19:36:14.508Z,101535.00
2024-01-01T19:38:43.144Z,101527.40
2024-01-01T19:41:11.286Z,101529.20
2024-01-01T19:43:39.377Z,101529.00
2024-01-01T19:46:09.426Z,101520.80
2024-01-01T19:48:37.915Z,101519.00
2024-01-01T19:51:05.979Z,101524.20
2024-01-01T19:53:35.067Z,101525.80
2024-01-01T19:56:05.163Z,101528.40
2024-01-01T19:58:33.243Z,101517.60
2024-01-01T20:01:03.818Z,101513.20
2024-01-01T20:03:31.902Z,101518.00
2024-01-01T20:06:00.106Z,101512.80
2024-01-01T20:08:33.530Z,101515.20
2024-01-01T20:11:08.452Z,101506.00
2024-01-01T20:13:39.987Z,101516.20
2024-01-01T20:16:08.280Z,101512.60
2024-01-01T20:18:36.378Z,101518.80
2024-01-01T20:21:05.205Z,101515.40
2024-01-01T20:23:33.542Z,101519.40
2024-01-01T20:26:01.554Z,101516.00
2024-01-01T20:28:29.550Z,101515.00
2024-01-01T20:30:59.043Z,101520.00
2024-01-01T20:33:27.120Z,101522.80
2024-01-01T20:35:55.163Z,101522.40
2024-01-01T20:38:23.354Z,101530.20
2024-01-01T20:40:51.568Z,101532.40
2024-01-01T20:43:19.445Z,101531.80
2024-01-01T20:45:47.394Z,101528.00
2024-01-01T20:48:15.294Z,101526.40
2024-01-01T20:50:44.044Z,101525.00
2024-01-01T20:53:12.256Z,101527.80
2024-01-01T20:55:40.698Z,101526.20
2024-01-01T20:58:08.585Z,101527.80
2024-01-01T21:00:36.411Z,101528.00
2024-01-01T21:03:05.320Z,101523.00
2024-01-01T21:05:33.569Z,101530.20
2024-01-01T21:08:05.081Z,101529.60
2024-01-01T21:10:33.827Z,101530.40
2024-01-01T21:13:01.662Z,101529.60
2024-01-01T21:15:29.505Z,101532.00
2024-01-01T21:17:57.664Z,101539.00
2024-01-01T21:20:25.678Z,101535.40
2024-01-01T21:22:54.045Z,101540.20
2024-01-01T21:25:22.220Z,101535.80
2024-01-01T21:27:50.086Z,101538.20
2024-01-01T21:30:18.154Z,101535.80
2024-01-01T21:32:46.499Z,101542.20
2024-01-01T21:35:17.788Z,101543.60
2024-01-01T21:37:46.298Z,101545.40
2024-01-01T21:40:16.424Z,101539.60
2024-01-01T21:42:46.997Z,101542.60
2024-01-01T21:45:15.566Z,101546.00
2024-01-01T21:47:43.791Z,101538.60
2024-01-01T21:50:12.855Z,101548.60
2024-01-01T21:52:40.852Z,101549.80
2024-01-01T21:55:09.241Z,101544.00
2024-01-01T21:57:37.763Z,101559.40
2024-01-01T22:00:06.623Z,101551.60
2024-01-01T22:02:34.759Z,101549.80
2024-01-01T22:05:02.854Z,101552.60
2024-01-01T22:07:31.185Z,101558.40
2024-01-01T22:10:00.427Z,101551.40
2024-01-01T22:12:28.310Z,101553.40
2024-01-01T22:14:56.132Z,101552.60
2024-01-01T22:17:24.466Z,101555.00
2024-01-01T22:19:52.463Z,101549.80
2024-01-01T22:22:20.591Z,101548.00
2024-01-01T22:24:48.590Z,101548.60
2024-01-01T22:27:16.572Z,101544.60
2024-01-01T22:29:45.217Z,101542.60
2024-01-01T22:32:13.102Z,101537.00
2024-01-01T22:34:41.342Z,101539.60
2024-01-01T22:37:09.333Z,101545.40
2024-01-01T22:39:37.242Z,101545.00
2024-01-01T22:42:05.273Z,101548.00
2024-01-01T22:44:33.488Z,101550.80
2024-01-01T22:47:02.018Z,101549.20
2024-01-01T22:49:30.089Z,101550.20
2024-01-01T22:51:57.944Z,101549.60
2024-01-01T22:54:25.827Z,101549.40
2024-01-01T22:56:53.586Z,101553.00
2024-01-01T22:59:21.776Z,101548.20
2024-01-01T23:01:50.301Z,101548.20
2024-01-01T23:04:18.345Z,101552.20
2024-01-01T23:06:46.718Z,101550.80
2024-01-01T23:09:14.726Z,101545.60
2024-01-01T23:11:43.375Z,101545.80
2024-01-01T23:14:11.249Z,101545.60
2024-01-01T23:16:39.281Z,101542.40
2024-01-01T23:19:08.513Z,101544.00
2024-01-01T23:21:36.661Z,101541.80
2024-01-01T23:24:04.902Z,101542.60
2024-01-01T23:26:33.139Z,101546.20
2024-01-01T23:29:02.321Z,101538.80
2024-01-01T23:31:30.789Z,101549.20
2024-01-01T23:34:05.243Z,101549.60
2024-01-01T23:36:42.509Z,101545.40
2024-01-01T23:39:10.609Z,101540.40
2024-01-01T23:41:38.591Z,101540.80
2024-01-01T23:44:07.062Z,101538.40
2024-01-01T23:46:37.283Z,101530.80
2024-01-01T23:49:05.608Z,101530.20
2024-01-01T23:51:33.556Z,101533.80
2024-01-01T23:54:02.726Z,101539.00
2024-01-01T23:56:32.359Z,101534.60
2024-01-01T23:59:00.636Z,101543.40
